createdAt,value
2022-09-10T00:07:15.295Z,91.71
2022-09-10T00:22:22.763Z,92.84
2022-09-10T00:37:28.347Z,93.20
2022-09-10T00:52:39.024Z,93.18
2022-09-10T01:07:46.198Z,92.89
2022-09-10T01:23:15.701Z,93.39
2022-09-10T01:38:28.540Z,97.36
2022-09-10T01:54:00.501Z,97.82
2022-09-10T02:09:07.044Z,98.71
2022-09-10T02:24:14.292Z,98.97
2022-09-10T02:39:20.280Z,99.28
2022-09-10T02:54:26.555Z,99.34
2022-09-10T03:09:32.084Z,100.20
2022-09-10T03:24:37.581Z,99.53
2022-09-10T03:39:43.745Z,100.31
2022-09-10T03:54:50.963Z,101.29
2022-09-10T04:09:56.495Z,101.66
2022-09-10T04:25:02.080Z,103.25
2022-09-10T04:40:09.655Z,102.99
2022-09-10T04:55:15.946Z,103.27
2022-09-10T05:10:24.679Z,103.22
2022-09-10T05:25:30.346Z,102.44
2022-09-10T05:40:35.963Z,103.48
2022-09-10T05:55:41.800Z,102.03
2022-09-10T06:10:57.990Z,100.93
2022-09-10T06:26:09.204Z,100.22
2022-09-10T06:41:16.620Z,99.33
2022-09-10T06:56:22.315Z,97.62
2022-09-10T07:11:30.715Z,95.79
2022-09-10T07:26:36.381Z,95.68
2022-09-10T07:41:42.148Z,95.04
2022-09-10T07:56:48.801Z,94.14
2022-09-10T08:11:54.557Z,95.71
2022-09-10T08:27:00.262Z,100.81
2022-09-10T08:42:10.818Z,102.93
2022-09-10T08:57:25.031Z,102.53
2022-09-10T09:12:35.661Z,101.68
2022-09-10T09:27:43.076Z,98.80
2022-09-10T09:42:55.476Z,96.90
2022-09-10T09:58:32.365Z,95.53
2022-09-10T10:13:42.425Z,92.73
2022-09-10T10:28:52.182Z,90.06
2022-09-10T10:44:15.268Z,87.83
2022-09-10T10:59:32.682Z,83.32
2022-09-10T11:14:44.698Z,84.03
2022-09-10T11:29:56.411Z,83.48
2022-09-10T11:45:07.294Z,81.46
2022-09-10T12:00:17.284Z,82.72
2022-09-10T12:15:25.429Z,81.04
2022-09-10T12:31:03.067Z,80.16
2022-09-10T12:46:19.495Z,81.72
2022-09-10T13:01:40.751Z,82.78
2022-09-10T13:16:46.761Z,81.46
2022-09-10T13:32:01.602Z,81.72
2022-09-10T13:47:14.491Z,83.79
2022-09-10T14:02:21.732Z,83.70
2022-09-10T14:17:30.391Z,80.15
2022-09-10T14:32:37.835Z,81.70
2022-09-10T14:47:54.126Z,79.76
2022-09-10T15:03:00.827Z,81.59
2022-09-10T15:18:10.573Z,83.83
2022-09-10T15:33:16.413Z,81.52
2022-09-10T15:48:22.335Z,81.23
2022-09-10T16:03:28.271Z,82.24
2022-09-10T16:18:34.876Z,82.96
2022-09-10T16:33:40.671Z,85.26
2022-09-10T16:48:47.489Z,86.33
2022-09-10T17:03:53.749Z,87.32
2022-09-10T17:19:01.060Z,90.84
2022-09-10T17:34:07.184Z,91.90
2022-09-10T17:49:14.786Z,93.39
2022-09-10T18:04:21.831Z,92.58
2022-09-10T18:19:27.678Z,93.60
2022-09-10T18:34:33.548Z,93.76
2022-09-10T18:49:39.305Z,91.27
2022-09-10T19:05:09.722Z,91.80
2022-09-10T19:20:11.765Z,91.26
2022-09-10T19:35:17.727Z,90.95
2022-09-10T19:50:23.639Z,91.26
2022-09-10T20:05:29.329Z,91.79
2022-09-10T20:20:35.063Z,91.92
2022-09-10T20:35:44.120Z,90.76
2022-09-10T20:50:55.796Z,92.15
2022-09-10T21:06:02.286Z,94.07
2022-09-10T21:21:13.192Z,95.41
2022-09-10T21:36:20.830Z,96.25
2022-09-10T21:51:26.378Z,98.01
2022-09-10T22:06:32.654Z,95.55
2022-09-10T22:21:38.705Z,94.87
2022-09-10T22:36:45.800Z,95.36
2022-09-10T22:51:51.518Z,96.74
2022-09-10T23:06:57.461Z,98.84
2022-09-10T23:22:03.666Z,99.58
2022-09-10T23:37:10.350Z,100.49
2022-09-10T23:52:16.094Z,99.74
